createdAt,value
2023-01-31T00:00:05.744Z,7.10
2023-01-31T00:01:05.573Z,6.40
2023-01-31T00:02:05.603Z,7.40
2023-01-31T00:03:05.737Z,6.20
2023-01-31T00:04:05.584Z,7.10
2023-01-31T00:05:05.535Z,7.60
2023-01-31T00:06:05.517Z,7.50
2023-01-31T00:07:05.541Z,7.50
2023-01-31T00:08:05.538Z,6.10
2023-01-31T00:09:05.526Z,6.90
2023-01-31T00:10:05.609Z,7.60
2023-01-31T00:11:05.508Z,7.10
2023-01-31T00:12:05.446Z,7.50
2023-01-31T00:13:05.504Z,7.90
2023-01-31T00:14:05.401Z,7.50
2023-01-31T00:15:05.676Z,6.80
2023-01-31T00:16:05.454Z,6.90
2023-01-31T00:17:05.374Z,7.30
2023-01-31T00:18:05.346Z,6.80
2023-01-31T00:19:05.488Z,6.50
2023-01-31T00:20:05.366Z,8.00
2023-01-31T00:21:05.349Z,8.20
2023-01-31T00:22:05.274Z,7.10
2023-01-31T00:23:18.313Z,7.70
2023-01-31T00:24:05.264Z,7.20
2023-01-31T00:25:05.284Z,7.60
2023-01-31T00:26:05.315Z,5.10
2023-01-31T00:27:05.281Z,7.40
2023-01-31T00:28:05.208Z,6.60
2023-01-31T00:29:05.316Z,5.90
2023-01-31T00:30:05.173Z,7.90
2023-01-31T00:31:05.220Z,8.30
2023-01-31T00:32:05.428Z,8.20
2023-01-31T00:33:05.209Z,7.60
2023-01-31T00:34:05.151Z,7.70
2023-01-31T00:35:05.180Z,6.10
2023-01-31T00:36:05.116Z,6.90
2023-01-31T00:37:05.119Z,7.00
2023-01-31T00:38:05.234Z,7.60
2023-01-31T00:39:05.104Z,6.90
2023-01-31T00:40:05.039Z,6.70
2023-01-31T00:41:05.131Z,7.00
2023-01-31T00:42:05.032Z,6.90
2023-01-31T00:43:05.021Z,6.80
2023-01-31T00:44:05.001Z,5.90
2023-01-31T00:45:05.075Z,6.30
2023-01-31T00:46:04.963Z,6.40
2023-01-31T00:47:05.002Z,7.30
2023-01-31T00:48:04.979Z,8.40
2023-01-31T00:49:04.982Z,7.50
2023-01-31T00:50:04.911Z,7.90
2023-01-31T00:51:05.032Z,6.60
2023-01-31T00:52:04.996Z,7.40
2023-01-31T00:53:04.913Z,6.50
2023-01-31T00:54:04.901Z,8.10
2023-01-31T00:55:04.850Z,7.50
2023-01-31T00:56:04.912Z,8.00
2023-01-31T00:57:04.961Z,8.30
2023-01-31T00:58:04.821Z,7.40
2023-01-31T00:59:04.809Z,8.30
2023-01-31T01:00:04.799Z,7.80
2023-01-31T01:01:37.032Z,8.00
2023-01-31T01:02:04.795Z,7.70
2023-01-31T01:03:04.905Z,7.80
2023-01-31T01:04:04.716Z,7.70
2023-01-31T01:05:04.709Z,7.80
2023-01-31T01:06:04.701Z,7.00
2023-01-31T01:07:04.700Z,7.60
2023-01-31T01:08:04.676Z,7.30
2023-01-31T01:09:04.710Z,8.10
2023-01-31T01:10:04.723Z,7.80
2023-01-31T01:11:04.638Z,8.50
2023-01-31T01:12:04.635Z,8.30
2023-01-31T01:13:04.640Z,8.60
2023-01-31T01:14:04.618Z,7.20
2023-01-31T01:15:04.615Z,8.10
2023-01-31T01:16:04.684Z,6.80
2023-01-31T01:17:04.546Z,8.70
2023-01-31T01:18:04.557Z,8.20
2023-01-31T01:19:04.506Z,7.70
2023-01-31T01:20:07.558Z,7.40
2023-01-31T01:21:04.579Z,8.60
2023-01-31T01:22:04.478Z,8.90
2023-01-31T01:23:04.638Z,8.50
2023-01-31T01:24:04.528Z,7.70
2023-01-31T01:25:04.447Z,7.40
2023-01-31T01:26:04.435Z,8.20
2023-01-31T01:27:04.507Z,8.50
2023-01-31T01:28:04.422Z,8.40
2023-01-31T01:29:04.409Z,8.50
2023-01-31T01:30:04.427Z,8.80
2023-01-31T01:31:04.407Z,8.70
2023-01-31T01:32:04.447Z,8.50
2023-01-31T01:33:04.521Z,7.80
2023-01-31T01:34:04.351Z,9.10
2023-01-31T01:35:04.349Z,8.30
2023-01-31T01:36:04.554Z,8.80
2023-01-31T01:37:04.294Z,8.60
2023-01-31T01:38:04.286Z,8.60
2023-01-31T01:39:27.734Z,8.20
2023-01-31T01:40:05.284Z,7.60
2023-01-31T01:41:04.236Z,8.20
2023-01-31T01:42:04.286Z,7.50
2023-01-31T01:43:04.258Z,7.80
2023-01-31T01:44:04.224Z,7.60
2023-01-31T01:45:04.231Z,8.30
2023-01-31T01:46:04.505Z,8.00
2023-01-31T01:47:04.174Z,8.00
2023-01-31T01:48:04.183Z,7.80
2023-01-31T01:49:04.149Z,7.90
2023-01-31T01:50:04.171Z,8.70
2023-01-31T01:51:04.158Z,7.60
2023-01-31T01:52:04.098Z,7.80
2023-01-31T01:53:04.114Z,7.80
2023-01-31T01:54:04.080Z,7.90
2023-01-31T01:55:04.083Z,7.60
2023-01-31T01:56:04.084Z,8.30
2023-01-31T01:57:04.101Z,8.40
2023-01-31T01:58:04.017Z,6.40
2023-01-31T01:59:04.087Z,7.00
2023-01-31T02:00:04.004Z,8.70
2023-01-31T02:01:04.005Z,8.00
2023-01-31T02:02:04.004Z,8.50
2023-01-31T02:03:04.227Z,8.20
2023-01-31T02:04:03.952Z,9.00
2023-01-31T02:05:03.926Z,7.80
2023-01-31T02:06:04.104Z,7.00
2023-01-31T02:07:03.962Z,8.90
2023-01-31T02:08:03.929Z,7.90
2023-01-31T02:09:03.949Z,8.40
2023-01-31T02:10:04.025Z,8.00
2023-01-31T02:11:03.858Z,6.60
2023-01-31T02:12:03.920Z,7.20
2023-01-31T02:13:03.893Z,6.40
2023-01-31T02:14:03.801Z,8.00
2023-01-31T02:15:03.902Z,6.70
2023-01-31T02:16:06.324Z,8.00
2023-01-31T02:17:03.805Z,6.20
2023-01-31T02:18:03.774Z,7.40
2023-01-31T02:19:03.751Z,8.30
2023-01-31T02:20:03.742Z,7.20
2023-01-31T02:21:03.749Z,7.00
2023-01-31T02:22:03.740Z,7.00
2023-01-31T02:23:03.684Z,6.90
2023-01-31T02:24:03.672Z,7.10
2023-01-31T02:25:03.635Z,8.00
2023-01-31T02:26:03.678Z,6.10
2023-01-31T02:27:03.706Z,7.00
2023-01-31T02:28:03.613Z,3.90
2023-01-31T02:29:03.579Z,7.50
2023-01-31T02:30:03.588Z,8.00
2023-01-31T02:31:03.576Z,7.80
2023-01-31T02:32:03.684Z,8.50
2023-01-31T02:33:03.689Z,7.20
2023-01-31T02:34:03.516Z,8.20
2023-01-31T02:35:03.521Z,7.70
2023-01-31T02:36:03.544Z,7.70
2023-01-31T02:37:03.507Z,8.60
2023-01-31T02:38:03.513Z,8.20
2023-01-31T02:39:03.528Z,6.20
2023-01-31T02:40:03.447Z,8.20
2023-01-31T02:41:03.430Z,8.40
2023-01-31T02:42:03.488Z,6.90
2023-01-31T02:43:03.418Z,9.20
2023-01-31T02:44:03.510Z,8.80
2023-01-31T02:45:03.424Z,8.20
2023-01-31T02:46:03.450Z,8.80
2023-01-31T02:47:03.388Z,8.30
2023-01-31T02:48:03.381Z,9.40
2023-01-31T02:49:03.324Z,8.30
2023-01-31T02:50:03.427Z,8.60
2023-01-31T02:51:03.399Z,8.90
2023-01-31T02:52:03.306Z,8.70
2023-01-31T02:53:03.305Z,8.10
2023-01-31T02:54:03.292Z,8.90
2023-01-31T02:55:03.249Z,8.40
2023-01-31T02:56:03.267Z,8.10
2023-01-31T02:57:03.272Z,9.20
2023-01-31T02:58:03.227Z,9.80
2023-01-31T02:59:03.220Z,7.70
2023-01-31T03:00:03.212Z,8.90
2023-01-31T03:01:03.303Z,8.80
2023-01-31T03:02:03.252Z,8.20
2023-01-31T03:03:03.218Z,9.80
2023-01-31T03:04:03.398Z,7.80
2023-01-31T03:05:03.139Z,8.80
2023-01-31T03:06:03.169Z,9.60
2023-01-31T03:07:03.147Z,8.80
2023-01-31T03:08:03.156Z,8.00
2023-01-31T03:09:03.084Z,8.00
2023-01-31T03:10:03.117Z,6.70
2023-01-31T03:11:03.240Z,8.60
2023-01-31T03:12:03.033Z,8.10
2023-01-31T03:13:03.033Z,9.40
2023-01-31T03:14:03.116Z,9.00
2023-01-31T03:15:03.034Z,8.50
2023-01-31T03:16:03.016Z,8.60
2023-01-31T03:17:03.094Z,9.80
2023-01-31T03:18:02.970Z,7.50
2023-01-31T03:19:02.948Z,7.70
2023-01-31T03:20:02.958Z,8.40
2023-01-31T03:21:02.944Z,7.70
2023-01-31T03:22:02.884Z,8.70
2023-01-31T03:23:03.088Z,9.30
2023-01-31T03:24:02.906Z,8.40
2023-01-31T03:25:02.850Z,8.10
2023-01-31T03:26:02.873Z,8.90
2023-01-31T03:27:02.884Z,8.30
2023-01-31T03:28:02.854Z,8.40
2023-01-31T03:29:02.952Z,9.30
2023-01-31T03:30:02.832Z,9.00
2023-01-31T03:31:02.872Z,9.40
2023-01-31T03:32:02.916Z,10.00
2023-01-31T03:33:02.761Z,8.20
2023-01-31T03:34:02.745Z,9.60
2023-01-31T03:35:02.861Z,8.50
2023-01-31T03:36:02.732Z,5.70
2023-01-31T03:37:02.691Z,9.80
2023-01-31T03:38:02.808Z,8.70
2023-01-31T03:39:02.724Z,8.90
2023-01-31T03:40:02.652Z,8.60
2023-01-31T03:41:02.766Z,7.20
2023-01-31T03:42:02.683Z,10.30
2023-01-31T03:43:02.621Z,9.80
2023-01-31T03:44:02.718Z,9.70
2023-01-31T03:45:02.601Z,8.60
2023-01-31T03:46:02.620Z,9.90
2023-01-31T03:47:02.669Z,9.40
2023-01-31T03:48:02.562Z,10.20
2023-01-31T03:49:02.550Z,9.10
2023-01-31T03:50:02.629Z,10.20
2023-01-31T03:51:02.540Z,10.10
2023-01-31T03:52:02.589Z,9.30
2023-01-31T03:53:02.746Z,9.80
2023-01-31T03:54:02.517Z,10.10
2023-01-31T03:55:02.470Z,10.60
2023-01-31T03:56:02.663Z,10.00
2023-01-31T03:57:02.470Z,9.70
2023-01-31T03:58:02.408Z,8.80
2023-01-31T03:59:02.553Z,9.00
2023-01-31T04:00:02.427Z,9.20
2023-01-31T04:01:02.412Z,9.50
2023-01-31T04:02:02.642Z,10.20
2023-01-31T04:03:02.397Z,10.60
2023-01-31T04:04:02.382Z,9.40
2023-01-31T04:05:02.443Z,10.10
2023-01-31T04:06:02.316Z,9.90
2023-01-31T04:07:02.360Z,9.80
2023-01-31T04:08:02.555Z,10.10
2023-01-31T04:09:02.280Z,8.90
2023-01-31T04:10:02.261Z,10.30
2023-01-31T04:11:02.438Z,10.60
2023-01-31T04:12:02.272Z,9.10
2023-01-31T04:13:02.214Z,10.50
2023-01-31T04:14:02.372Z,10.40
2023-01-31T04:15:02.246Z,8.90
2023-01-31T04:16:02.276Z,9.10
2023-01-31T04:17:02.412Z,10.00
2023-01-31T04:18:02.169Z,9.90
2023-01-31T04:19:02.147Z,6.80
2023-01-31T04:20:02.367Z,6.20
2023-01-31T04:21:02.137Z,8.40
2023-01-31T04:22:02.167Z,10.50
2023-01-31T04:23:02.293Z,9.20
2023-01-31T04:24:02.070Z,7.30
2023-01-31T04:25:02.093Z,9.60
2023-01-31T04:26:02.199Z,9.60
2023-01-31T04:27:02.073Z,11.20
2023-01-31T04:28:02.008Z,10.30
2023-01-31T04:29:02.218Z,10.40
2023-01-31T04:30:01.974Z,10.70
2023-01-31T04:31:02.144Z,9.60
2023-01-31T04:32:02.208Z,10.40
2023-01-31T04:33:01.958Z,11.70
2023-01-31T04:34:01.929Z,7.70
2023-01-31T04:36:11.817Z,10.00
2023-01-31T04:37:11.817Z,9.60
2023-01-31T04:38:11.808Z,11.40
2023-01-31T04:39:11.925Z,9.60
2023-01-31T04:40:11.781Z,11.80
2023-01-31T04:41:11.738Z,10.30
2023-01-31T04:42:11.849Z,11.70
2023-01-31T04:43:11.735Z,13.10
2023-01-31T04:44:11.715Z,11.90
2023-01-31T04:45:11.867Z,13.40
2023-01-31T04:46:11.648Z,12.60
2023-01-31T04:47:11.657Z,11.70
2023-01-31T04:48:18.458Z,12.50
2023-01-31T04:49:11.630Z,11.50
2023-01-31T04:50:11.636Z,11.90
2023-01-31T04:51:11.698Z,12.80
2023-01-31T04:52:11.628Z,11.60
2023-01-31T04:53:11.624Z,9.80
2023-01-31T04:54:11.601Z,11.90
2023-01-31T04:55:11.585Z,12.00
2023-01-31T04:56:11.594Z,12.20
2023-01-31T04:57:11.554Z,10.20
2023-01-31T04:58:11.577Z,10.20
2023-01-31T04:59:11.565Z,12.00
2023-01-31T05:00:11.544Z,12.30
2023-01-31T05:01:11.676Z,11.40
2023-01-31T05:02:11.614Z,11.90
2023-01-31T05:03:11.492Z,12.00
2023-01-31T05:04:11.497Z,10.30
2023-01-31T05:05:11.515Z,12.10
2023-01-31T05:06:11.433Z,12.40
2023-01-31T05:07:11.431Z,13.10
2023-01-31T05:08:11.403Z,12.00
2023-01-31T05:09:11.389Z,12.50
2023-01-31T05:10:11.441Z,12.50
2023-01-31T05:11:11.364Z,13.30
2023-01-31T05:12:11.381Z,12.10
2023-01-31T05:13:11.391Z,12.90
2023-01-31T05:14:11.403Z,12.80
2023-01-31T05:15:11.309Z,12.20
2023-01-31T05:16:11.359Z,11.90
2023-01-31T05:17:12.946Z,11.70
2023-01-31T05:18:11.323Z,11.10
2023-01-31T05:19:11.221Z,11.80
2023-01-31T05:20:11.294Z,11.90
2023-01-31T05:21:11.231Z,11.70
2023-01-31T05:22:11.212Z,12.00
2023-01-31T05:23:11.272Z,12.20
2023-01-31T05:24:11.234Z,13.80
2023-01-31T05:25:11.167Z,13.40
2023-01-31T05:26:11.252Z,12.20
2023-01-31T05:27:11.162Z,14.60
2023-01-31T05:28:11.131Z,14.00
2023-01-31T05:29:37.039Z,15.10
2023-01-31T05:30:12.197Z,15.90
2023-01-31T05:31:11.152Z,15.90
2023-01-31T05:32:11.128Z,15.20
2023-01-31T05:33:11.121Z,16.50
2023-01-31T05:34:11.040Z,16.50
2023-01-31T05:35:11.178Z,15.90
2023-01-31T05:36:11.271Z,16.40
2023-01-31T05:37:11.009Z,16.90
2023-01-31T05:38:11.033Z,17.30
2023-01-31T05:39:10.988Z,16.00
2023-01-31T05:40:10.958Z,14.80
2023-01-31T05:41:10.989Z,14.20
2023-01-31T05:42:10.975Z,13.60
2023-01-31T05:43:10.963Z,13.90
2023-01-31T05:44:10.904Z,14.90
2023-01-31T05:45:10.908Z,14.80
2023-01-31T05:46:10.903Z,14.40
2023-01-31T05:47:10.911Z,15.60
2023-01-31T05:48:10.898Z,15.20
2023-01-31T05:49:10.837Z,16.20
2023-01-31T05:50:10.828Z,15.90
2023-01-31T05:51:10.832Z,16.00
2023-01-31T05:52:10.791Z,15.80
2023-01-31T05:53:10.777Z,16.40
2023-01-31T05:54:10.858Z,16.40
2023-01-31T05:55:10.792Z,17.80
2023-01-31T05:56:10.759Z,16.10
2023-01-31T05:57:10.765Z,16.40
2023-01-31T05:58:10.718Z,16.60
2023-01-31T05:59:10.699Z,17.50
2023-01-31T06:00:10.705Z,17.00
2023-01-31T06:01:10.699Z,16.50
2023-01-31T06:02:10.757Z,16.80
2023-01-31T06:03:10.710Z,16.30
2023-01-31T06:04:10.708Z,16.70
2023-01-31T06:05:10.649Z,16.80
2023-01-31T06:06:10.679Z,16.10
2023-01-31T06:07:10.636Z,15.50
2023-01-31T06:08:10.623Z,15.60
2023-01-31T06:09:10.557Z,15.20
2023-01-31T06:10:10.626Z,15.00
2023-01-31T06:11:10.643Z,16.30
2023-01-31T06:12:10.583Z,16.10
2023-01-31T06:13:10.581Z,16.00
2023-01-31T06:14:10.512Z,16.40
2023-01-31T06:15:10.565Z,15.20
2023-01-31T06:16:10.572Z,15.60
2023-01-31T06:17:10.474Z,15.50
2023-01-31T06:18:10.487Z,15.40
2023-01-31T06:19:10.447Z,14.70
2023-01-31T06:20:10.440Z,16.20
2023-01-31T06:21:10.419Z,13.50
2023-01-31T06:22:10.462Z,14.90
2023-01-31T06:23:10.413Z,13.60
2023-01-31T06:24:10.450Z,14.00
2023-01-31T06:25:10.413Z,12.40
2023-01-31T06:26:10.354Z,14.00
2023-01-31T06:27:10.334Z,14.30
2023-01-31T06:28:10.370Z,13.70
2023-01-31T06:29:10.312Z,14.00
2023-01-31T06:30:10.327Z,13.60
2023-01-31T06:31:10.500Z,13.90
2023-01-31T06:32:10.278Z,13.90
2023-01-31T06:33:10.324Z,14.10
2023-01-31T06:34:10.337Z,13.60
2023-01-31T06:35:10.228Z,13.90
2023-01-31T06:36:10.232Z,13.50
2023-01-31T06:37:10.281Z,14.50
2023-01-31T06:38:10.203Z,14.60
2023-01-31T06:39:10.162Z,15.30
2023-01-31T06:40:10.221Z,14.20
2023-01-31T06:41:10.152Z,14.80
2023-01-31T06:42:10.140Z,14.40
2023-01-31T06:43:10.190Z,15.40
2023-01-31T06:44:10.144Z,15.40
2023-01-31T06:45:10.123Z,16.00
2023-01-31T06:46:10.217Z,15.50
2023-01-31T06:47:10.064Z,14.80
2023-01-31T06:48:10.154Z,14.50
2023-01-31T06:49:10.145Z,14.60
2023-01-31T06:50:10.046Z,15.50
2023-01-31T06:51:10.089Z,14.60
2023-01-31T06:52:10.053Z,14.40
2023-01-31T06:53:10.001Z,15.60
2023-01-31T06:54:10.012Z,14.40
2023-01-31T06:55:10.000Z,13.60
2023-01-31T06:56:09.984Z,13.90
2023-01-31T06:57:10.187Z,14.00
2023-01-31T06:58:09.990Z,13.10
2023-01-31T06:59:10.159Z,14.00
2023-01-31T07:00:09.969Z,13.70
2023-01-31T07:01:10.043Z,13.70
2023-01-31T07:02:09.956Z,13.10
2023-01-31T07:03:09.878Z,11.90
2023-01-31T07:04:09.868Z,13.30
2023-01-31T07:05:09.871Z,13.40
2023-01-31T07:06:09.839Z,13.40
2023-01-31T07:07:09.831Z,13.00
2023-01-31T07:08:09.960Z,13.40
2023-01-31T07:09:09.911Z,13.90
2023-01-31T07:10:09.776Z,14.40
2023-01-31T07:11:09.803Z,12.90
2023-01-31T07:12:09.740Z,13.60
2023-01-31T07:13:09.759Z,12.80
2023-01-31T07:14:09.840Z,13.50
2023-01-31T07:15:09.716Z,13.20
2023-01-31T07:16:09.723Z,12.80
2023-01-31T07:17:09.720Z,13.30
2023-01-31T07:18:09.677Z,13.90
2023-01-31T07:19:09.647Z,13.80
2023-01-31T07:20:09.693Z,13.50
2023-01-31T07:21:09.676Z,13.20
2023-01-31T07:22:09.665Z,13.60
2023-01-31T07:23:09.615Z,13.30
2023-01-31T07:24:09.614Z,13.20
2023-01-31T07:25:09.576Z,14.10
2023-01-31T07:26:09.638Z,13.90
2023-01-31T07:27:09.565Z,13.80
2023-01-31T07:28:09.558Z,13.70
2023-01-31T07:29:09.525Z,13.60
2023-01-31T07:30:09.531Z,14.10
2023-01-31T07:31:09.568Z,14.20
2023-01-31T07:32:09.551Z,13.50
2023-01-31T07:33:09.496Z,13.60
2023-01-31T07:34:09.485Z,12.80
2023-01-31T07:35:09.454Z,13.50
2023-01-31T07:36:09.554Z,13.80
2023-01-31T07:37:09.455Z,14.00
2023-01-31T07:38:11.247Z,14.20
2023-01-31T07:39:09.484Z,13.40
2023-01-31T07:40:09.408Z,13.60
2023-01-31T07:41:09.376Z,13.70
2023-01-31T07:42:09.381Z,13.10
2023-01-31T07:43:09.406Z,13.80
2023-01-31T07:44:09.424Z,13.10
2023-01-31T07:45:22.430Z,13.60
2023-01-31T07:46:10.485Z,13.10
2023-01-31T07:47:09.416Z,12.50
2023-01-31T07:48:09.314Z,13.10
2023-01-31T07:49:09.323Z,13.30
2023-01-31T07:50:09.285Z,12.50
2023-01-31T07:51:09.304Z,13.40
2023-01-31T07:52:09.543Z,13.20
2023-01-31T07:53:09.233Z,12.40
2023-01-31T07:54:09.222Z,12.60
2023-01-31T07:55:09.192Z,12.60
2023-01-31T07:56:09.241Z,12.90
2023-01-31T07:57:09.453Z,12.50
2023-01-31T07:58:09.310Z,12.30
2023-01-31T07:59:09.208Z,12.70
2023-01-31T08:00:09.237Z,12.30
2023-01-31T08:01:09.268Z,11.90
2023-01-31T08:02:09.308Z,11.80
2023-01-31T08:03:09.339Z,12.30
2023-01-31T08:04:44.863Z,12.20
2023-01-31T08:05:09.136Z,10.80
2023-01-31T08:06:09.192Z,10.50
2023-01-31T08:07:09.032Z,10.70
2023-01-31T08:08:09.114Z,10.80
2023-01-31T08:09:09.021Z,10.70
2023-01-31T08:10:09.327Z,9.80
2023-01-31T08:11:09.047Z,6.80
2023-01-31T08:12:08.965Z,10.60
2023-01-31T08:13:09.077Z,10.40
2023-01-31T08:14:09.139Z,10.70
2023-01-31T08:15:09.013Z,9.50
2023-01-31T08:16:09.087Z,5.50
2023-01-31T08:17:08.906Z,9.20
2023-01-31T08:19:21.170Z,11.00
2023-01-31T08:20:21.024Z,11.10
2023-01-31T08:21:21.027Z,9.00
2023-01-31T08:22:21.026Z,7.20
2023-01-31T08:23:20.941Z,8.40
2023-01-31T08:24:20.872Z,9.60
2023-01-31T08:25:21.129Z,11.00
2023-01-31T08:26:21.130Z,12.20
2023-01-31T08:27:20.913Z,11.50
2023-01-31T08:28:20.897Z,11.90
2023-01-31T08:29:20.861Z,11.00
2023-01-31T08:30:20.938Z,11.40
2023-01-31T08:31:20.999Z,11.40
2023-01-31T08:32:20.851Z,11.10
2023-01-31T08:33:20.845Z,12.10
2023-01-31T08:34:20.843Z,10.90
2023-01-31T08:35:21.164Z,12.30
2023-01-31T08:36:20.826Z,10.70
2023-01-31T08:37:20.953Z,11.20
2023-01-31T08:38:20.821Z,9.70
2023-01-31T08:39:24.945Z,11.00
2023-01-31T08:40:20.689Z,11.10
2023-01-31T08:41:20.695Z,9.90
2023-01-31T08:42:20.795Z,10.00
2023-01-31T08:43:20.766Z,11.30
2023-01-31T08:44:20.731Z,9.30
2023-01-31T08:45:20.936Z,6.60
2023-01-31T08:46:20.757Z,10.50
2023-01-31T08:47:20.900Z,10.80
2023-01-31T08:48:20.576Z,10.20
2023-01-31T08:49:20.662Z,10.40
2023-01-31T08:50:27.680Z,10.00
2023-01-31T08:51:21.593Z,9.00
2023-01-31T08:52:20.503Z,6.90
2023-01-31T08:53:20.653Z,9.00
2023-01-31T08:54:20.623Z,10.10
2023-01-31T08:55:20.978Z,8.40
2023-01-31T08:56:20.532Z,9.30
2023-01-31T08:57:20.454Z,7.00
2023-01-31T08:58:20.463Z,10.40
2023-01-31T08:59:20.452Z,9.10
2023-01-31T09:00:35.621Z,7.80
2023-01-31T09:01:20.431Z,8.70
2023-01-31T09:02:20.386Z,6.70
2023-01-31T09:03:20.498Z,7.00
2023-01-31T09:04:20.382Z,7.60
2023-01-31T09:05:20.657Z,8.30
2023-01-31T09:06:20.517Z,9.00
2023-01-31T09:07:20.331Z,8.50
2023-01-31T09:08:20.303Z,8.70
2023-01-31T09:09:20.390Z,8.10
2023-01-31T09:10:20.314Z,7.90
2023-01-31T09:11:20.281Z,8.10
2023-01-31T09:12:20.263Z,8.70
2023-01-31T09:13:20.346Z,6.10
2023-01-31T09:14:20.239Z,7.90
2023-01-31T09:15:20.652Z,7.90
2023-01-31T09:16:20.311Z,7.10
2023-01-31T09:17:20.263Z,5.50
2023-01-31T09:18:20.172Z,7.30
2023-01-31T09:19:20.230Z,8.40
2023-01-31T09:20:20.181Z,6.90
2023-01-31T09:21:20.233Z,5.70
2023-01-31T09:22:20.110Z,8.00
2023-01-31T09:23:20.095Z,4.90
2023-01-31T09:24:20.090Z,4.80
2023-01-31T09:25:30.372Z,6.70
2023-01-31T09:26:21.176Z,5.30
2023-01-31T09:27:20.081Z,4.10
2023-01-31T09:28:20.067Z,6.90
2023-01-31T09:29:20.161Z,6.40
2023-01-31T09:30:20.025Z,7.00
2023-01-31T09:31:20.059Z,6.30
2023-01-31T09:32:20.135Z,6.80
2023-01-31T09:33:19.980Z,5.80
2023-01-31T09:34:19.971Z,6.70
2023-01-31T09:35:20.324Z,5.80
2023-01-31T09:36:20.015Z,5.50
2023-01-31T09:37:19.982Z,6.70
2023-01-31T09:38:19.949Z,6.80
2023-01-31T09:39:19.977Z,5.30
2023-01-31T09:40:19.930Z,5.20
2023-01-31T09:41:19.925Z,5.00
2023-01-31T09:42:21.441Z,6.50
2023-01-31T09:43:20.969Z,6.00
2023-01-31T09:44:19.820Z,6.80
2023-01-31T09:45:20.075Z,6.30
2023-01-31T09:46:19.867Z,6.10
2023-01-31T09:47:19.807Z,5.90
2023-01-31T09:48:19.775Z,5.70
2023-01-31T09:49:19.837Z,6.10
2023-01-31T09:50:19.743Z,6.80
2023-01-31T09:51:19.806Z,6.10
2023-01-31T09:52:19.925Z,3.10
2023-01-31T09:53:19.726Z,4.20
2023-01-31T09:54:19.674Z,4.10
2023-01-31T09:55:20.157Z,3.20
2023-01-31T09:56:19.842Z,3.90
2023-01-31T09:57:19.706Z,4.30
2023-01-31T09:58:19.648Z,4.70
2023-01-31T09:59:19.634Z,5.00
2023-01-31T10:00:19.639Z,5.40
2023-01-31T10:01:19.702Z,5.30
2023-01-31T10:02:19.595Z,6.20
2023-01-31T10:03:19.631Z,5.30
2023-01-31T10:04:19.595Z,5.60
2023-01-31T10:05:19.929Z,5.30
2023-01-31T10:06:19.564Z,4.20
2023-01-31T10:07:19.605Z,5.30
2023-01-31T10:08:19.505Z,4.90
2023-01-31T10:09:19.559Z,4.80
2023-01-31T10:10:19.476Z,5.00
2023-01-31T10:11:19.484Z,4.40
2023-01-31T10:12:19.541Z,5.00
2023-01-31T10:13:19.467Z,5.20
2023-01-31T10:14:19.424Z,4.50
2023-01-31T10:15:19.842Z,4.60
2023-01-31T10:16:19.389Z,3.90
2023-01-31T10:17:19.417Z,3.70
2023-01-31T10:18:19.531Z,4.50
2023-01-31T10:19:19.424Z,5.10
2023-01-31T10:21:33.041Z,4.80
2023-01-31T10:22:32.945Z,5.00
2023-01-31T10:23:33.051Z,5.30
2023-01-31T10:24:33.191Z,5.10
2023-01-31T10:25:32.904Z,4.30
2023-01-31T10:26:32.914Z,4.50
2023-01-31T10:27:32.898Z,5.10
2023-01-31T10:28:32.870Z,4.70
2023-01-31T10:29:32.823Z,5.40
2023-01-31T10:30:32.944Z,4.20
2023-01-31T10:31:32.853Z,3.80
2023-01-31T10:32:32.814Z,4.40
2023-01-31T10:33:32.879Z,5.40
2023-01-31T10:34:32.823Z,5.00
2023-01-31T10:35:32.780Z,5.60
2023-01-31T10:36:32.902Z,5.00
2023-01-31T10:37:32.742Z,4.20
2023-01-31T10:38:32.744Z,5.80
2023-01-31T10:39:32.897Z,3.60
2023-01-31T10:40:33.055Z,4.50
2023-01-31T10:41:32.691Z,5.80
2023-01-31T10:42:32.780Z,5.40
2023-01-31T10:43:32.941Z,3.60
2023-01-31T10:44:32.758Z,4.50
2023-01-31T10:45:32.903Z,5.80
2023-01-31T10:46:32.918Z,4.40
2023-01-31T10:47:32.625Z,4.60
2023-01-31T10:48:32.899Z,4.90
2023-01-31T10:49:32.622Z,5.80
2023-01-31T10:50:32.620Z,6.20
2023-01-31T10:51:32.540Z,5.50
2023-01-31T10:52:32.546Z,5.10
2023-01-31T10:53:32.585Z,4.80
2023-01-31T10:54:32.541Z,4.30
2023-01-31T10:55:32.588Z,3.80
2023-01-31T10:56:32.501Z,3.70
2023-01-31T10:57:32.468Z,5.00
2023-01-31T10:58:32.581Z,5.20
2023-01-31T10:59:32.448Z,6.00
2023-01-31T11:00:32.482Z,3.40
2023-01-31T11:01:37.007Z,4.20
2023-01-31T11:02:33.260Z,4.30
2023-01-31T11:03:32.421Z,4.10
2023-01-31T11:04:32.411Z,3.90
2023-01-31T11:06:44.402Z,4.80
2023-01-31T11:07:44.359Z,4.90
2023-01-31T11:08:44.372Z,4.50
2023-01-31T11:09:44.390Z,4.90
2023-01-31T11:10:44.436Z,5.80
2023-01-31T11:11:44.276Z,4.70
2023-01-31T11:12:44.608Z,5.90
2023-01-31T11:13:44.240Z,6.40
2023-01-31T11:14:44.366Z,5.40
2023-01-31T11:15:44.275Z,4.30
2023-01-31T11:16:44.274Z,2.80
2023-01-31T11:17:44.293Z,5.10
2023-01-31T11:18:44.237Z,4.10
2023-01-31T11:19:44.197Z,5.20
2023-01-31T11:20:44.240Z,3.60
2023-01-31T11:21:44.161Z,4.70
2023-01-31T11:22:44.332Z,6.20
2023-01-31T11:23:44.112Z,3.30
2023-01-31T11:24:44.225Z,4.00
2023-01-31T11:25:44.100Z,5.30
2023-01-31T11:26:44.096Z,5.80
2023-01-31T11:27:44.224Z,6.00
2023-01-31T11:28:44.040Z,4.20
2023-01-31T11:29:44.052Z,6.90
2023-01-31T11:30:44.090Z,5.10
2023-01-31T11:31:44.019Z,5.40
2023-01-31T11:32:44.032Z,5.60
2023-01-31T11:33:44.139Z,4.50
2023-01-31T11:34:44.111Z,5.70
2023-01-31T11:35:43.968Z,5.90
2023-01-31T11:36:44.192Z,5.30
2023-01-31T11:37:43.949Z,4.90
2023-01-31T11:38:43.973Z,4.50
2023-01-31T11:39:43.891Z,4.50
2023-01-31T11:40:43.969Z,5.00
2023-01-31T11:41:43.936Z,4.70
2023-01-31T11:42:44.190Z,4.70
2023-01-31T11:43:43.938Z,5.50
2023-01-31T11:44:43.862Z,5.30
2023-01-31T11:45:43.899Z,4.70
2023-01-31T11:46:43.874Z,5.20
2023-01-31T11:47:43.961Z,5.10
2023-01-31T11:48:43.870Z,5.40
2023-01-31T11:49:43.876Z,5.80
2023-01-31T11:50:43.867Z,5.70
2023-01-31T11:51:43.847Z,3.40
2023-01-31T11:52:43.720Z,5.60
2023-01-31T11:53:43.712Z,5.50
2023-01-31T11:54:43.780Z,4.30
2023-01-31T11:55:43.836Z,3.30
2023-01-31T11:56:43.674Z,5.10
2023-01-31T11:57:43.823Z,5.70
2023-01-31T11:58:43.792Z,4.80
2023-01-31T11:59:43.654Z,5.00
2023-01-31T12:00:43.749Z,5.30
2023-01-31T12:01:43.607Z,5.10
2023-01-31T12:02:43.797Z,4.50
2023-01-31T12:03:59.051Z,4.80
2023-01-31T12:04:44.625Z,4.20
2023-01-31T12:05:43.595Z,3.40
2023-01-31T12:06:43.840Z,4.20
2023-01-31T12:07:43.539Z,2.90
2023-01-31T12:08:43.539Z,4.50
2023-01-31T12:09:43.674Z,4.20
2023-01-31T12:10:43.550Z,4.00
2023-01-31T12:11:43.488Z,3.70
2023-01-31T12:12:44.465Z,3.80
2023-01-31T12:13:43.654Z,4.40
2023-01-31T12:14:43.450Z,4.50
2023-01-31T12:15:43.472Z,3.50
2023-01-31T12:16:43.701Z,3.70
2023-01-31T12:17:43.425Z,3.10
2023-01-31T12:18:43.532Z,3.50
2023-01-31T12:19:43.524Z,1.90
2023-01-31T12:20:43.355Z,3.40
2023-01-31T12:21:43.335Z,3.30
2023-01-31T12:22:43.364Z,2.80
2023-01-31T12:23:43.325Z,2.50
2023-01-31T12:24:43.358Z,2.20
2023-01-31T12:25:43.302Z,3.10
2023-01-31T12:26:43.371Z,2.90
2023-01-31T12:27:43.252Z,4.30
2023-01-31T12:28:43.289Z,2.90
2023-01-31T12:29:43.226Z,2.60
2023-01-31T12:30:43.452Z,3.50
2023-01-31T12:31:43.335Z,2.90
2023-01-31T12:32:43.206Z,3.20
2023-01-31T12:33:43.218Z,2.50
2023-01-31T12:34:59.289Z,3.10
2023-01-31T12:35:44.218Z,2.60
2023-01-31T12:36:43.226Z,2.90
2023-01-31T12:37:43.146Z,3.90
2023-01-31T12:38:43.104Z,3.70
2023-01-31T12:39:43.154Z,3.70
2023-01-31T12:40:43.118Z,3.60
2023-01-31T12:41:43.114Z,3.60
2023-01-31T12:42:43.092Z,1.50
2023-01-31T12:43:43.056Z,3.30
2023-01-31T12:44:43.027Z,2.40
2023-01-31T12:45:43.062Z,2.80
2023-01-31T12:46:42.995Z,2.40
2023-01-31T12:47:43.053Z,2.70
2023-01-31T12:48:42.980Z,3.00
2023-01-31T12:49:42.995Z,3.10
2023-01-31T12:50:43.031Z,3.00
2023-01-31T12:51:42.942Z,2.80
2023-01-31T12:52:42.915Z,3.30
2023-01-31T12:53:42.974Z,2.90
2023-01-31T12:54:42.947Z,2.70
2023-01-31T12:55:42.883Z,2.50
2023-01-31T12:56:42.994Z,3.60
2023-01-31T12:57:42.876Z,2.70
2023-01-31T12:58:42.865Z,3.30
2023-01-31T12:59:42.859Z,2.90
2023-01-31T13:00:42.804Z,3.00
2023-01-31T13:01:42.887Z,2.80
2023-01-31T13:02:43.009Z,2.30
2023-01-31T13:03:42.806Z,2.60
2023-01-31T13:04:42.757Z,2.80
2023-01-31T13:05:42.825Z,2.80
2023-01-31T13:06:42.744Z,2.60
2023-01-31T13:07:42.745Z,1.90
2023-01-31T13:08:46.752Z,1.50
2023-01-31T13:09:43.738Z,2.40
2023-01-31T13:10:42.674Z,1.90
2023-01-31T13:11:42.685Z,2.50
2023-01-31T13:12:42.666Z,2.60
2023-01-31T13:13:42.690Z,2.10